Airfield :
LOGIN :

Register | Disclaimer

   EN    FR    IT 

 










Legend :    VFR   Marginal VFR   IFR   Intensive IFR   Very Intensive IFR
Visi :
Ceiling :
>= 8 km
>= 3000ft
5 to 8 km
1000 to 3000 ft
1500m to 5 km
500 to 1000 ft
800 to 1500m
200 to 500 ft
< 800m
< 200 ft
Symbols :   Thunderstorms  Fog  Heavy snow  Heavy precipitations  Wind > 20 kt
SIGMETs :     Misc.  Thunderstorms  Icing  Turbulence  Mountain Waves  Volcanic Ashes







- Airport Elevation : 100 ft


EBDT - Schaffen

CURRENT METAR :
  • 240711Z 19008KT 8000 SCT006 BKN008 14/13 Q1021 YLO YLO TEMPO GRN

EXPIRED METARs :
  • 240655Z 19008KT 8000 SCT005 BKN007 14/13 Q1021 YLO YLO
  • 240625Z 19009KT 6000 FEW003 BKN005 14/13 Q1021 YLO YLO
  • 240604Z 19008KT 4000 -DZ SCT003 BKN006 13/13 Q1021 YLO YLO
  • 240555Z 19007KT 4000 -DZ SCT004 BKN006 13/13 Q1021 YLO
  • 240525Z 20007KT 4000 -DZ SCT004 BKN006 13/13 Q1021 YLO
  • 240455Z 20007KT 6000 SCT004 OVC006 13/13 Q1021 YLO
  • 240425Z 21006KT 9999 SCT004 OVC006 13/13 Q1021 YLO

TAF TAF EBDT
Valid from the 24 at 07:00 until the 24 at 16:00 UTC


240541Z 2407/2416 22008KT 6000 SCT004 BKN006
TEMPO 2407/2416 SCT008 BKN010
TEMPO 2407/2416 2000 -DZ SCT003 OVC005
TEMPO 2411/2415 RADZ/RA SCT002 OVC004
No reported NOTAMs for that airfield.



MET'MAP, your aeronautical weather chart ! - Copyright ORBIFLY December 2007 - Disclaimer

ORBIFLY MET'MAP TEAM :

Programming & Development : Alexandra Zaïnal
Concept & Development : Baudouin d'Aumeries
Co-Development & Prog : Marc-Olivier Méhu
Technical & hardware support : Manuel Goepfert

Contact : metmap@orbifly.com




SOURCES & CREDITS :

   NOAA